createdAt,value
2016-02-15T00:00:07.800Z,67.88
2016-02-15T00:01:07.818Z,67.6
2016-02-15T00:02:07.837Z,67.5
2016-02-15T00:03:07.855Z,67.5
2016-02-15T00:04:07.857Z,67.5
2016-02-15T00:05:07.875Z,68.07
2016-02-15T00:06:07.910Z,67.41
2016-02-15T00:07:07.928Z,68.17
2016-02-15T00:08:07.946Z,67.5
2016-02-15T00:09:07.949Z,67.5
2016-02-15T00:10:07.983Z,68.36
2016-02-15T00:11:08.001Z,68.07
2016-02-15T00:12:08.020Z,67.69
2016-02-15T00:13:08.022Z,68.07
2016-02-15T00:14:08.056Z,67.69
2016-02-15T00:15:08.059Z,67.69
2016-02-15T00:16:08.093Z,67.69
2016-02-15T00:17:08.111Z,68.07
2016-02-15T00:18:08.114Z,67.5
2016-02-15T00:19:08.132Z,67.69
2016-02-15T00:20:08.151Z,67.69
2016-02-15T00:21:08.169Z,67.69
2016-02-15T00:22:08.186Z,67.6
2016-02-15T00:23:08.221Z,67.41
2016-02-15T00:24:08.224Z,67.6
2016-02-15T00:25:08.242Z,68.17
2016-02-15T00:26:08.276Z,67.98
2016-02-15T00:27:08.279Z,67.98
2016-02-15T00:28:08.328Z,67.79
2016-02-15T00:29:08.315Z,67.79
2016-02-15T00:30:08.333Z,67.98
2016-02-15T00:31:08.352Z,67.6
2016-02-15T00:32:08.401Z,68.27
2016-02-15T00:33:08.389Z,67.79
2016-02-15T00:34:08.407Z,68.07
2016-02-15T00:35:08.425Z,67.6
2016-02-15T00:36:08.444Z,67.69
2016-02-15T00:37:08.462Z,67.69
2016-02-15T00:38:08.464Z,68.07
2016-02-15T00:39:08.498Z,67.98
2016-02-15T00:40:08.501Z,67.88
2016-02-15T00:41:08.535Z,67.6
2016-02-15T00:42:08.553Z,67.66
2016-02-15T00:43:08.572Z,67.85
2016-02-15T00:44:08.575Z,68.23
2016-02-15T00:45:08.609Z,67.85
2016-02-15T00:46:08.611Z,68.13
2016-02-15T00:47:08.628Z,67.85
2016-02-15T00:48:08.664Z,68.13
2016-02-15T00:49:08.666Z,67.76
2016-02-15T00:50:08.684Z,68.13
2016-02-15T00:51:08.703Z,68.23
2016-02-15T00:52:08.721Z,68.23
2016-02-15T00:53:08.724Z,68.13
2016-02-15T00:54:08.773Z,68.04
2016-02-15T00:55:08.775Z,68.13
2016-02-15T00:56:08.794Z,68.23
2016-02-15T00:57:08.813Z,68.13
2016-02-15T00:58:08.831Z,68.61
2016-02-15T00:59:08.849Z,67.85
2016-02-15T01:00:08.851Z,67.94
2016-02-15T01:01:08.871Z,67.85
2016-02-15T01:02:08.919Z,67.94
2016-02-15T01:03:08.921Z,67.94
2016-02-15T01:04:08.924Z,68.04
2016-02-15T01:05:08.943Z,68.33
2016-02-15T01:06:08.962Z,68.23
2016-02-15T01:07:08.980Z,67.85
2016-02-15T01:08:08.998Z,68.13
2016-02-15T01:09:09.032Z,67.85
2016-02-15T01:10:09.035Z,68.13
2016-02-15T01:11:09.053Z,68.23
2016-02-15T01:12:09.069Z,68.23
2016-02-15T01:13:09.062Z,68.42
2016-02-15T01:14:09.085Z,68.33
2016-02-15T01:15:09.092Z,68.23
2016-02-15T01:16:09.099Z,68.33
2016-02-15T01:17:09.107Z,68.42
2016-02-15T01:18:09.121Z,68.04
2016-02-15T01:19:09.119Z,68.52
2016-02-15T01:20:09.133Z,68.33
2016-02-15T01:21:09.147Z,68.33
2016-02-15T01:22:17.209Z,68.13
2016-02-15T01:23:09.194Z,68.9
2016-02-15T01:24:09.196Z,68.42
2016-02-15T01:25:09.212Z,68.13
2016-02-15T01:26:09.229Z,68.9
2016-02-15T01:27:09.246Z,68.33
2016-02-15T01:28:09.264Z,68.61
2016-02-15T01:29:09.281Z,68.42
2016-02-15T01:30:09.300Z,68.61
2016-02-15T01:31:09.318Z,68.52
2016-02-15T01:32:09.336Z,68.61
2016-02-15T01:33:09.354Z,68.52
2016-02-15T01:34:09.372Z,68.71
2016-02-15T01:35:09.391Z,68.71
2016-02-15T01:36:09.409Z,68.23
2016-02-15T01:37:09.442Z,68.71
2016-02-15T01:38:09.430Z,68.61
2016-02-15T01:39:09.464Z,68.42
2016-02-15T01:40:09.467Z,68.42
2016-02-15T01:41:09.501Z,68.23
2016-02-15T01:42:09.503Z,68.33
2016-02-15T01:43:09.537Z,68.33
2016-02-15T01:44:09.540Z,68.52
2016-02-15T01:45:09.573Z,68.52
2016-02-15T01:46:09.576Z,68.42
2016-02-15T01:47:09.595Z,68.42
2016-02-15T01:48:09.613Z,68.61
2016-02-15T01:49:09.632Z,68.42
2016-02-15T01:50:09.650Z,68.42
2016-02-15T01:51:09.668Z,68.52
2016-02-15T01:52:09.702Z,68.33
2016-02-15T01:53:09.705Z,68.52
2016-02-15T01:54:09.707Z,68.42
2016-02-15T01:55:09.725Z,68.52
2016-02-15T01:56:09.760Z,68.42
2016-02-15T01:57:09.762Z,68.71
2016-02-15T01:58:09.781Z,68.42
2016-02-15T01:59:09.799Z,68.61
2016-02-15T02:00:09.832Z,68.71
2016-02-15T02:01:09.836Z,68.52
2016-02-15T02:02:09.885Z,68.8
2016-02-15T02:03:09.871Z,68.71
2016-02-15T02:04:09.891Z,68.71
2016-02-15T02:05:09.909Z,68.23
2016-02-15T02:06:09.927Z,68.42
2016-02-15T02:07:09.962Z,68.52
2016-02-15T02:08:09.964Z,68.42
2016-02-15T02:09:09.967Z,68.42
2016-02-15T02:10:09.985Z,68.42
2016-02-15T02:11:10.018Z,68.42
2016-02-15T02:12:10.021Z,68.8
2016-02-15T02:13:10.040Z,68.33
2016-02-15T02:14:10.058Z,68.33
2016-02-15T02:15:10.092Z,68.8
2016-02-15T02:16:10.095Z,68.8
2016-02-15T02:17:10.113Z,68.33
2016-02-15T02:18:10.131Z,68.9
2016-02-15T02:19:10.150Z,68.52
2016-02-15T02:20:10.167Z,68.8
2016-02-15T02:21:10.186Z,68.04
2016-02-15T02:22:10.205Z,68.42
2016-02-15T02:23:10.223Z,68.9
2016-02-15T02:24:10.241Z,68.8
2016-02-15T02:25:10.260Z,68.04
2016-02-15T02:26:10.262Z,69.18
2016-02-15T02:27:10.281Z,69.09
2016-02-15T02:28:10.299Z,68.13
2016-02-15T02:29:10.316Z,69.27
2016-02-15T02:30:10.352Z,68.23
2016-02-15T02:31:10.369Z,68.23
2016-02-15T02:32:10.372Z,68.42
2016-02-15T02:33:10.374Z,68.71
2016-02-15T02:34:10.409Z,68.71
2016-02-15T02:35:10.427Z,68.61
2016-02-15T02:36:10.430Z,68.71
2016-02-15T02:37:10.463Z,68.71
2016-02-15T02:38:10.466Z,69.09
2016-02-15T02:39:10.501Z,68.71
2016-02-15T02:40:10.503Z,68.42
2016-02-15T02:41:10.537Z,68.42
2016-02-15T02:42:10.556Z,69.18
2016-02-15T02:43:10.558Z,68.52
2016-02-15T02:44:10.592Z,69.27
2016-02-15T02:45:10.595Z,69.46
2016-02-15T02:46:10.612Z,68.42
2016-02-15T02:47:10.631Z,69.27
2016-02-15T02:48:10.650Z,69.18
2016-02-15T02:49:10.653Z,69.27
2016-02-15T02:50:10.686Z,69.37
2016-02-15T02:51:10.689Z,69.09
2016-02-15T02:52:10.707Z,68.61
2016-02-15T02:53:10.725Z,69.27
2016-02-15T02:54:10.744Z,68.9
2016-02-15T02:55:10.761Z,68.9
2016-02-15T02:56:10.780Z,68.9
2016-02-15T02:57:10.799Z,68.9
2016-02-15T02:58:10.817Z,69.27
2016-02-15T02:59:10.835Z,69.27
2016-02-15T03:00:10.885Z,68.71
2016-02-15T03:01:10.888Z,68.9
2016-02-15T03:02:10.890Z,69.09
2016-02-15T03:03:10.893Z,69.09
2016-02-15T03:04:10.910Z,69.09
2016-02-15T03:05:10.946Z,69.18
2016-02-15T03:06:10.948Z,69.18
2016-02-15T03:07:10.998Z,69.18
2016-02-15T03:08:10.985Z,69.09
2016-02-15T03:09:11.003Z,69.09
2016-02-15T03:10:11.021Z,69.09
2016-02-15T03:11:11.040Z,68.99
2016-02-15T03:12:11.057Z,68.9
2016-02-15T03:13:11.076Z,69.09
2016-02-15T03:14:11.094Z,69.09
2016-02-15T03:15:11.113Z,68.99
2016-02-15T03:16:11.115Z,69.18
2016-02-15T03:17:11.150Z,69.09
2016-02-15T03:18:11.152Z,69.18
2016-02-15T03:19:11.170Z,69.27
2016-02-15T03:20:11.189Z,69.09
2016-02-15T03:21:11.222Z,69.18
2016-02-15T03:22:11.225Z,69.18
2016-02-15T03:23:11.228Z,68.99
2016-02-15T03:24:11.262Z,68.99
2016-02-15T03:25:11.280Z,69.09
2016-02-15T03:26:11.299Z,68.99
2016-02-15T03:27:11.302Z,68.99
2016-02-15T03:28:11.320Z,68.9
2016-02-15T03:29:11.338Z,69.27
2016-02-15T03:30:11.371Z,68.71
2016-02-15T03:31:11.375Z,69.09
2016-02-15T03:32:11.393Z,69.27
2016-02-15T03:33:11.411Z,69.09
2016-02-15T03:34:11.429Z,69.09
2016-02-15T03:35:11.463Z,69.27
2016-02-15T03:36:11.482Z,69.18
2016-02-15T03:37:11.468Z,68.9
2016-02-15T03:38:11.487Z,69.18
2016-02-15T03:39:11.505Z,68.99
2016-02-15T03:40:11.540Z,69.18
2016-02-15T03:41:11.542Z,68.8
2016-02-15T03:42:11.560Z,69.18
2016-02-15T03:43:11.579Z,69.09
2016-02-15T03:44:11.597Z,68.9
2016-02-15T03:45:11.615Z,68.8
2016-02-15T03:46:11.634Z,68.9
2016-02-15T03:47:11.651Z,69.18
2016-02-15T03:48:11.670Z,68.9
2016-02-15T03:49:11.673Z,68.8
2016-02-15T03:50:11.692Z,68.8
2016-02-15T03:51:11.725Z,68.99
2016-02-15T03:52:11.822Z,68.9
2016-02-15T03:53:11.747Z,68.8
2016-02-15T03:54:11.765Z,68.99
2016-02-15T03:55:11.783Z,68.9
2016-02-15T03:56:11.800Z,68.99
2016-02-15T03:57:11.819Z,68.8
2016-02-15T03:58:11.838Z,68.9
2016-02-15T03:59:11.856Z,68.99
2016-02-15T04:00:11.874Z,69.75
2016-02-15T04:01:11.893Z,68.9
2016-02-15T04:02:11.896Z,69.66
2016-02-15T04:03:11.914Z,68.9
2016-02-15T04:04:11.932Z,68.9
2016-02-15T04:05:11.949Z,68.9
2016-02-15T04:06:11.969Z,68.71
2016-02-15T04:07:11.987Z,68.71
2016-02-15T04:08:12.005Z,68.9
2016-02-15T04:09:12.024Z,68.9
2016-02-15T04:10:12.042Z,68.9
2016-02-15T04:11:12.045Z,69.18
2016-02-15T04:12:12.063Z,68.9
2016-02-15T04:13:12.081Z,68.71
2016-02-15T04:14:12.099Z,68.9
2016-02-15T04:15:12.134Z,69.85
2016-02-15T04:16:12.136Z,69.09
2016-02-15T04:17:12.154Z,69.09
2016-02-15T04:18:12.173Z,69.18
2016-02-15T04:19:12.191Z,68.99
2016-02-15T04:20:12.209Z,68.8
2016-02-15T04:21:12.228Z,69.09
2016-02-15T04:22:12.230Z,69.09
2016-02-15T04:23:12.264Z,68.99
2016-02-15T04:24:12.283Z,69.18
2016-02-15T04:25:12.285Z,69.18
2016-02-15T04:26:12.304Z,69.09
2016-02-15T04:27:12.322Z,69.75
2016-02-15T04:28:12.324Z,68.8
2016-02-15T04:29:12.375Z,69.27
2016-02-15T04:30:12.377Z,69.09
2016-02-15T04:31:12.379Z,69.18
2016-02-15T04:32:12.398Z,69.46
2016-02-15T04:33:12.416Z,69.46
2016-02-15T04:34:12.435Z,68.99
2016-02-15T04:35:12.452Z,69.27
2016-02-15T04:36:12.471Z,69.24
2016-02-15T04:37:12.489Z,69.46
2016-02-15T04:38:12.508Z,69.09
2016-02-15T04:39:12.526Z,69.56
2016-02-15T04:40:12.543Z,69.24
2016-02-15T04:41:12.563Z,68.8
2016-02-15T04:42:12.581Z,69.05
2016-02-15T04:43:12.599Z,68.77
2016-02-15T04:44:12.602Z,69.53
2016-02-15T04:45:12.636Z,68.96
2016-02-15T04:46:12.670Z,68.96
2016-02-15T04:47:12.657Z,68.8
2016-02-15T04:48:12.675Z,68.99
2016-02-15T04:49:12.693Z,68.77
2016-02-15T04:50:12.712Z,69.81
2016-02-15T04:51:12.714Z,68.99
2016-02-15T04:52:12.734Z,68.9
2016-02-15T04:53:12.751Z,69.66
2016-02-15T04:54:12.785Z,68.86
2016-02-15T04:55:12.804Z,69.71
2016-02-15T04:56:12.822Z,68.86
2016-02-15T04:57:12.824Z,68.77
2016-02-15T04:58:12.858Z,69.05
2016-02-15T04:59:12.861Z,68.86
2016-02-15T05:00:12.879Z,69.75
2016-02-15T05:01:12.898Z,69.09
2016-02-15T05:02:12.916Z,69.71
2016-02-15T05:03:12.949Z,68.86
2016-02-15T05:04:12.953Z,68.71
2016-02-15T05:05:12.971Z,69.34
2016-02-15T05:06:12.988Z,69.46
2016-02-15T05:07:12.992Z,69.05
2016-02-15T05:08:13.026Z,69.09
2016-02-15T05:09:13.029Z,69.43
2016-02-15T05:10:13.047Z,69.05
2016-02-15T05:11:13.066Z,69.34
2016-02-15T05:12:13.084Z,69.15
2016-02-15T05:13:13.118Z,69.56
2016-02-15T05:14:13.120Z,69.27
2016-02-15T05:15:13.138Z,69.09
2016-02-15T05:16:13.141Z,69.34
2016-02-15T05:17:13.175Z,69.34
2016-02-15T05:18:13.178Z,69.09
2016-02-15T05:19:13.212Z,69.46
2016-02-15T05:20:13.214Z,69.24
2016-02-15T05:21:13.233Z,69.37
2016-02-15T05:22:13.251Z,69.62
2016-02-15T05:23:13.269Z,69.56
2016-02-15T05:24:13.287Z,69.09
2016-02-15T05:25:13.306Z,69.15
2016-02-15T05:26:13.324Z,69.46
2016-02-15T05:27:13.343Z,69.37
2016-02-15T05:28:13.345Z,69.24
2016-02-15T05:29:13.379Z,69.18
2016-02-15T05:30:13.383Z,69.18
2016-02-15T05:31:13.400Z,69.56
2016-02-15T05:32:13.434Z,69.37
2016-02-15T05:33:13.436Z,69.46
2016-02-15T05:34:13.455Z,69.27
2016-02-15T05:35:13.474Z,69.56
2016-02-15T05:36:13.492Z,68.99
2016-02-15T05:37:13.510Z,69.27
2016-02-15T05:38:13.528Z,69.46
2016-02-15T05:39:13.532Z,69.66
2016-02-15T05:40:13.565Z,69.66
2016-02-15T05:41:13.567Z,69.37
2016-02-15T05:42:13.585Z,69.37
2016-02-15T05:43:13.620Z,69.46
2016-02-15T05:44:13.670Z,69.09
2016-02-15T05:45:13.657Z,69.37
2016-02-15T05:46:13.659Z,69.18
2016-02-15T05:47:13.678Z,69.37
2016-02-15T05:48:13.696Z,69.18
2016-02-15T05:49:13.698Z,69.37
2016-02-15T05:50:13.732Z,69.56
2016-02-15T05:51:13.735Z,69.18
2016-02-15T05:52:13.754Z,69.18
2016-02-15T05:53:13.772Z,68.99
2016-02-15T05:54:13.790Z,69.37
2016-02-15T05:55:13.809Z,69.18
2016-02-15T05:56:13.827Z,69.27
2016-02-15T05:57:13.845Z,68.99
2016-02-15T05:58:13.864Z,69.66
2016-02-15T05:59:13.881Z,69.09
2016-02-15T06:00:13.900Z,69.46
2016-02-15T06:01:13.918Z,69.37
2016-02-15T06:02:13.937Z,69.09
2016-02-15T06:03:13.939Z,69.37
2016-02-15T06:04:13.989Z,69.37
2016-02-15T06:05:13.976Z,69.37
2016-02-15T06:06:13.994Z,69.18
2016-02-15T06:07:14.013Z,69.18
2016-02-15T06:08:14.030Z,69.18
2016-02-15T06:09:14.049Z,69.37
2016-02-15T06:10:14.068Z,69.18
2016-02-15T06:11:14.071Z,69.27
2016-02-15T06:12:14.088Z,69.37
2016-02-15T06:13:14.107Z,69.09
2016-02-15T06:14:14.140Z,69.18
2016-02-15T06:15:14.144Z,69.27
2016-02-15T06:16:14.162Z,69.27
2016-02-15T06:17:14.179Z,69.18
2016-02-15T06:18:14.199Z,69.37
2016-02-15T06:19:14.232Z,69.18
2016-02-15T06:20:14.235Z,69.09
2016-02-15T06:21:14.253Z,69.27
2016-02-15T06:22:14.272Z,69.09
2016-02-15T06:23:14.290Z,69.18
2016-02-15T06:24:14.309Z,68.99
2016-02-15T06:25:14.311Z,69.46
2016-02-15T06:26:14.344Z,69.27
2016-02-15T06:27:14.348Z,69.18
2016-02-15T06:28:14.366Z,69.09
2016-02-15T06:29:14.384Z,69.09
2016-02-15T06:30:14.403Z,69.56
2016-02-15T06:31:14.421Z,69.27
2016-02-15T06:32:14.439Z,69.27
2016-02-15T06:33:14.458Z,69.27
2016-02-15T06:34:14.460Z,69.18
2016-02-15T06:35:14.510Z,69.09
2016-02-15T06:36:14.497Z,69.37
2016-02-15T06:37:14.515Z,69.09
2016-02-15T06:38:14.534Z,69.56
2016-02-15T06:39:14.552Z,69.27
2016-02-15T06:40:14.570Z,69.09
2016-02-15T06:41:14.589Z,69.09
2016-02-15T06:42:14.638Z,68.99
2016-02-15T06:43:14.624Z,69.27
2016-02-15T06:44:14.643Z,68.99
2016-02-15T06:45:14.646Z,69.56
2016-02-15T06:46:14.664Z,69.18
2016-02-15T06:47:14.683Z,69.18
2016-02-15T06:48:14.701Z,69.18
2016-02-15T06:49:14.719Z,69.18
2016-02-15T06:50:14.738Z,69.46
2016-02-15T06:51:14.756Z,69.46
2016-02-15T06:52:14.773Z,69.27
2016-02-15T06:53:14.793Z,69.18
2016-02-15T06:54:14.795Z,68.99
2016-02-15T06:55:14.829Z,69.27
2016-02-15T06:56:14.832Z,69.18
2016-02-15T06:57:14.866Z,69.37
2016-02-15T06:58:14.869Z,69.27
2016-02-15T06:59:14.887Z,69.37
2016-02-15T07:00:14.905Z,69.27
2016-02-15T07:01:14.923Z,69.37
2016-02-15T07:02:14.942Z,69.27
2016-02-15T07:03:14.960Z,69.37
2016-02-15T07:04:14.994Z,69.18
2016-02-15T07:05:14.981Z,69.18
2016-02-15T07:06:14.999Z,69.18
2016-02-15T07:07:15.018Z,69.27
2016-02-15T07:08:15.036Z,69.27
2016-02-15T07:09:15.054Z,69.18
2016-02-15T07:10:15.072Z,69.18
2016-02-15T07:11:15.091Z,69.18
2016-02-15T07:12:15.109Z,69.18
2016-02-15T07:13:15.128Z,69.27
2016-02-15T07:14:15.146Z,69.09
2016-02-15T07:15:15.164Z,69.27
2016-02-15T07:16:15.183Z,69.18
2016-02-15T07:17:15.201Z,69.18
2016-02-15T07:18:15.204Z,69.09
2016-02-15T07:19:15.237Z,69.37
2016-02-15T07:20:15.240Z,68.99
2016-02-15T07:21:15.259Z,69.56
2016-02-15T07:22:15.277Z,69.37
2016-02-15T07:23:15.296Z,69.56
2016-02-15T07:24:15.313Z,69.46
2016-02-15T07:25:15.317Z,69.18
2016-02-15T07:26:15.350Z,69.18
2016-02-15T07:27:15.367Z,69.27
2016-02-15T07:28:15.402Z,69.37
2016-02-15T07:29:15.389Z,69.56
2016-02-15T07:30:15.408Z,69.18
2016-02-15T07:31:15.426Z,69.18
2016-02-15T07:32:15.444Z,69.46
2016-02-15T07:33:15.463Z,69.37
2016-02-15T07:34:15.497Z,69.46
2016-02-15T07:35:15.499Z,69.37
2016-02-15T07:36:15.517Z,69.18
2016-02-15T07:37:15.520Z,69.56
2016-02-15T07:38:15.538Z,69.46
2016-02-15T07:39:15.401Z,69.56
2016-02-15T07:40:15.575Z,69.66
2016-02-15T07:41:15.594Z,69.46
2016-02-15T07:42:15.612Z,69.56
2016-02-15T07:43:15.630Z,69.18
2016-02-15T07:44:15.649Z,69.18
2016-02-15T07:45:15.666Z,69.27
2016-02-15T07:46:15.669Z,69.27
2016-02-15T07:47:15.703Z,69.37
2016-02-15T07:48:15.707Z,69.18
2016-02-15T07:49:15.740Z,69.37
2016-02-15T07:50:15.743Z,69.18
2016-02-15T07:51:15.761Z,69.09
2016-02-15T07:52:15.779Z,69.37
2016-02-15T07:53:15.798Z,68.99
2016-02-15T07:54:15.815Z,69.27
2016-02-15T07:55:15.834Z,69.18
2016-02-15T07:56:15.853Z,69.18
2016-02-15T07:57:15.871Z,69.09
2016-02-15T07:58:15.889Z,69.18
2016-02-15T07:59:15.908Z,69.18
2016-02-15T08:00:15.926Z,68.9
2016-02-15T08:01:15.928Z,68.8
2016-02-15T08:02:15.962Z,69.56
2016-02-15T08:03:15.981Z,69.09
2016-02-15T08:04:16.000Z,69.09
2016-02-15T08:05:16.002Z,69.66
2016-02-15T08:06:16.020Z,69.46
2016-02-15T08:07:16.038Z,69.6
2016-02-15T08:08:16.057Z,69.31
2016-02-15T08:09:16.075Z,69.56
2016-02-15T08:10:16.093Z,69.56
2016-02-15T08:11:16.111Z,68.99
2016-02-15T08:12:16.130Z,69.6
2016-02-15T08:13:16.133Z,69.12
2016-02-15T08:14:16.167Z,69.12
2016-02-15T08:15:16.169Z,69.98
2016-02-15T08:16:16.203Z,69.21
2016-02-15T08:17:16.207Z,69.88
2016-02-15T08:18:16.224Z,69.31
2016-02-15T08:19:16.243Z,69.56
2016-02-15T08:20:16.260Z,69.09
2016-02-15T08:21:16.279Z,69.37
2016-02-15T08:22:16.298Z,69.5
2016-02-15T08:23:16.316Z,69.12
2016-02-15T08:24:16.334Z,69.41
2016-02-15T08:25:16.352Z,69.5
2016-02-15T08:26:16.356Z,69.6
2016-02-15T08:27:16.389Z,68.93
2016-02-15T08:28:16.391Z,69.21
2016-02-15T08:29:16.410Z,69.21
2016-02-15T08:30:16.428Z,69.31
2016-02-15T08:31:16.447Z,69.31
2016-02-15T08:32:16.464Z,68.84
2016-02-15T08:33:16.483Z,69.88
2016-02-15T08:34:16.502Z,68.84
2016-02-15T08:35:16.536Z,69.21
2016-02-15T08:36:16.539Z,68.93
2016-02-15T08:37:16.556Z,69.31
2016-02-15T08:38:16.574Z,69.21
2016-02-15T08:39:16.577Z,68.46
2016-02-15T08:40:16.628Z,68.55
2016-02-15T08:41:16.630Z,68.46
2016-02-15T08:42:16.648Z,68.46
2016-02-15T08:43:16.652Z,68.84
2016-02-15T08:44:16.669Z,68.27
2016-02-15T08:45:16.703Z,68.65
2016-02-15T08:46:16.705Z,68.27
2016-02-15T08:47:16.724Z,68.27
2016-02-15T08:48:16.742Z,68.4
2016-02-15T08:49:16.761Z,68.96
2016-02-15T08:50:16.779Z,68.3
2016-02-15T08:51:16.797Z,68.49
2016-02-15T08:52:16.816Z,68.01
2016-02-15T08:53:16.834Z,67.92
2016-02-15T08:54:16.851Z,67.92
2016-02-15T08:55:17.137Z,68.21
2016-02-15T08:56:16.889Z,68.01
2016-02-15T08:57:16.907Z,68.01
2016-02-15T08:58:16.926Z,67.73
2016-02-15T08:59:16.944Z,68.01
2016-02-15T09:00:16.962Z,68.3
2016-02-15T09:01:16.981Z,67.54
2016-02-15T09:02:16.983Z,67.35
2016-02-15T09:03:17.001Z,67.44
2016-02-15T09:04:17.019Z,68.01
2016-02-15T09:05:17.039Z,67.54
2016-02-15T09:06:17.056Z,67.25
2016-02-15T09:07:17.075Z,67.44
2016-02-15T09:08:17.093Z,67.44
2016-02-15T09:09:17.127Z,67.63
2016-02-15T09:10:17.130Z,67.54
2016-02-15T09:11:17.147Z,67.63
2016-02-15T09:12:17.166Z,67.82
2016-02-15T09:13:17.185Z,67.73
2016-02-15T09:14:17.203Z,67.54
2016-02-15T09:15:17.225Z,67.73
2016-02-15T09:16:17.243Z,67.73
2016-02-15T09:17:17.262Z,67.54
2016-02-15T09:18:17.264Z,67.82
2016-02-15T09:19:17.283Z,67.16
2016-02-15T09:20:17.317Z,67.35
2016-02-15T09:21:17.335Z,67.25
2016-02-15T09:22:17.338Z,67.73
2016-02-15T09:23:17.356Z,67.25
2016-02-15T09:24:17.374Z,66.87
2016-02-15T09:25:17.408Z,67.44
2016-02-15T09:26:17.458Z,67.07
2016-02-15T09:27:17.444Z,66.87
2016-02-15T09:28:17.447Z,66.87
2016-02-15T09:29:17.466Z,66.87
2016-02-15T09:30:17.484Z,66.87
2016-02-15T09:31:17.502Z,67.35
2016-02-15T09:32:17.521Z,67.07
2016-02-15T09:33:17.554Z,66.78
2016-02-15T09:34:17.557Z,66.78
2016-02-15T09:35:17.576Z,66.68
2016-02-15T09:36:17.594Z,67.16
2016-02-15T09:37:17.612Z,67.16
2016-02-15T09:38:17.631Z,67.16
2016-02-15T09:39:17.648Z,66.68
2016-02-15T09:40:17.667Z,67.07
2016-02-15T09:41:17.685Z,66.78
2016-02-15T09:42:17.704Z,66.68
2016-02-15T09:43:17.722Z,66.59
2016-02-15T09:44:17.741Z,66.68
2016-02-15T09:45:17.759Z,66.68
2016-02-15T09:46:17.777Z,67.07
2016-02-15T09:47:17.781Z,66.49
2016-02-15T09:48:17.798Z,66.78
2016-02-15T09:49:17.831Z,66.39
2016-02-15T09:50:17.851Z,66.2
2016-02-15T09:51:17.869Z,66.3
2016-02-15T09:52:17.887Z,66.39
2016-02-15T09:53:17.890Z,66.68
2016-02-15T09:54:17.924Z,66.3
2016-02-15T09:55:17.927Z,66.39
2016-02-15T09:56:17.960Z,66.2
2016-02-15T09:57:17.963Z,65.92
2016-02-15T09:58:17.997Z,66.02
2016-02-15T09:59:17.999Z,66.39
2016-02-15T10:00:18.034Z,66.78
2016-02-15T10:01:18.036Z,66.59
2016-02-15T10:02:18.086Z,66.59
2016-02-15T10:03:18.104Z,66.39
2016-02-15T10:04:18.138Z,66.68
2016-02-15T10:05:18.125Z,66.39
2016-02-15T10:06:18.143Z,66.11
2016-02-15T10:07:18.162Z,66.59
2016-02-15T10:08:18.165Z,65.83
2016-02-15T10:09:18.199Z,66.59
2016-02-15T10:10:18.217Z,66.59
2016-02-15T10:11:18.220Z,66.39
2016-02-15T10:12:18.237Z,66.2
2016-02-15T10:13:18.256Z,66.49
2016-02-15T10:14:18.273Z,66.11
2016-02-15T10:15:18.309Z,66.87
2016-02-15T10:16:18.311Z,66.59
2016-02-15T10:17:18.329Z,66.2
2016-02-15T10:18:18.346Z,66.39
2016-02-15T10:19:18.351Z,66.39
2016-02-15T10:20:18.356Z,66.68
2016-02-15T10:21:18.377Z,66.3
2016-02-15T10:22:18.366Z,66.11
2016-02-15T10:23:18.389Z,65.92
2016-02-15T10:24:18.418Z,66.59
2016-02-15T10:25:18.401Z,66.3
2016-02-15T10:26:18.415Z,66.11
2016-02-15T10:27:18.428Z,66.62
2016-02-15T10:28:18.442Z,66.33
2016-02-15T10:29:18.474Z,66.33
2016-02-15T10:30:18.474Z,65.86
2016-02-15T10:31:18.491Z,66.14
2016-02-15T10:32:18.508Z,66.14
2016-02-15T10:33:18.524Z,66.05
2016-02-15T10:34:18.542Z,65.29
2016-02-15T10:35:18.560Z,65.86
2016-02-15T10:36:18.578Z,65.77
2016-02-15T10:37:18.596Z,65.58
2016-02-15T10:38:18.613Z,65.67
2016-02-15T10:39:18.632Z,65.86
2016-02-15T10:40:18.650Z,65.67
2016-02-15T10:41:18.668Z,65.77
2016-02-15T10:42:18.686Z,65.77
2016-02-15T10:43:18.704Z,65.48
2016-02-15T10:44:18.722Z,65.95
2016-02-15T10:45:18.755Z,65.48
2016-02-15T10:46:18.758Z,65.95
2016-02-15T10:47:18.761Z,65.48
2016-02-15T10:48:18.795Z,65.19
2016-02-15T10:49:18.799Z,65.29
2016-02-15T10:50:18.832Z,65.19
2016-02-15T10:51:18.850Z,64.9
2016-02-15T10:52:18.869Z,65
2016-02-15T10:53:18.887Z,65.1
2016-02-15T10:54:18.904Z,65.25
2016-02-15T10:55:18.924Z,64.78
2016-02-15T10:56:18.942Z,64.97
2016-02-15T10:57:18.960Z,64.78
2016-02-15T10:58:18.995Z,64.4
2016-02-15T10:59:18.997Z,65.35
2016-02-15T11:00:19.031Z,65.25
2016-02-15T11:01:19.033Z,64.78
2016-02-15T11:02:19.051Z,64.4
2016-02-15T11:03:19.070Z,64.5
2016-02-15T11:04:19.088Z,64.31
2016-02-15T11:05:19.107Z,64.69
2016-02-15T11:06:19.125Z,64.31
2016-02-15T11:07:19.143Z,65.16
2016-02-15T11:08:19.178Z,64.5
2016-02-15T11:09:19.180Z,64.59
2016-02-15T11:10:19.197Z,64.87
2016-02-15T11:11:19.217Z,64.5
2016-02-15T11:12:19.250Z,65.25
2016-02-15T11:13:19.253Z,64.87
2016-02-15T11:14:19.272Z,65.06
2016-02-15T11:15:19.274Z,65.16
2016-02-15T11:16:19.324Z,65.16
2016-02-15T11:17:19.310Z,65.16
2016-02-15T11:18:19.344Z,65.25
2016-02-15T11:19:19.363Z,64.97
2016-02-15T11:20:19.381Z,64.5
2016-02-15T11:21:19.385Z,64.02
2016-02-15T11:22:19.418Z,64.21
2016-02-15T11:23:19.436Z,64.69
2016-02-15T11:24:19.455Z,64.31
2016-02-15T11:25:19.473Z,64.4
2016-02-15T11:26:19.490Z,64.02
2016-02-15T11:27:19.510Z,63.92
2016-02-15T11:28:19.528Z,63.45
2016-02-15T11:29:19.546Z,63.64
2016-02-15T11:30:19.565Z,64.02
2016-02-15T11:31:19.567Z,64.11
2016-02-15T11:32:19.601Z,64.02
2016-02-15T11:33:19.603Z,63.83
2016-02-15T11:34:19.622Z,64.4
2016-02-15T11:35:19.656Z,64.11
2016-02-15T11:36:19.674Z,64.02
2016-02-15T11:37:19.693Z,64.11
2016-02-15T11:38:19.695Z,64.11
2016-02-15T11:39:19.729Z,64.31
2016-02-15T11:40:19.732Z,64.31
2016-02-15T11:41:19.750Z,64.4
2016-02-15T11:42:19.784Z,64.02
2016-02-15T11:43:19.786Z,64.11
2016-02-15T11:44:19.821Z,64.11
2016-02-15T11:45:19.839Z,64.5
2016-02-15T11:46:19.842Z,64.59
2016-02-15T11:47:19.860Z,64.4
2016-02-15T11:48:19.879Z,64.31
2016-02-15T11:49:19.897Z,64.31
2016-02-15T11:50:19.930Z,64.53
2016-02-15T11:51:19.933Z,64.15
2016-02-15T11:52:19.968Z,63.76
2016-02-15T11:53:19.970Z,63.76
2016-02-15T11:54:19.988Z,63.45
2016-02-15T11:55:20.023Z,63.64
2016-02-15T11:56:20.040Z,62.88
2016-02-15T11:57:20.043Z,62.97
2016-02-15T11:58:20.077Z,63.67
2016-02-15T11:59:20.079Z,63.35
2016-02-15T12:00:20.098Z,63.57
2016-02-15T12:01:20.117Z,63.86
2016-02-15T12:02:20.135Z,62.97
2016-02-15T12:03:20.153Z,62.91
2016-02-15T12:04:20.172Z,63.45
2016-02-15T12:05:20.206Z,63.67
2016-02-15T12:06:20.208Z,62.91
2016-02-15T12:07:20.226Z,62.53
2016-02-15T12:08:20.245Z,62.91
2016-02-15T12:09:20.263Z,62.62
2016-02-15T12:10:20.281Z,62.43
2016-02-15T12:11:20.316Z,62.53
2016-02-15T12:12:20.318Z,62.81
2016-02-15T12:13:20.367Z,62.53
2016-02-15T12:14:20.370Z,62.81
2016-02-15T12:15:20.373Z,62.53
2016-02-15T12:16:20.391Z,62.53
2016-02-15T12:17:20.410Z,62.15
2016-02-15T12:18:20.428Z,62.81
2016-02-15T12:19:20.447Z,62.15
2016-02-15T12:20:20.465Z,62.15
2016-02-15T12:21:20.483Z,61.86
2016-02-15T12:22:20.502Z,61.86
2016-02-15T12:23:20.535Z,61.77
2016-02-15T12:24:20.554Z,61.67
2016-02-15T12:25:20.557Z,61.67
2016-02-15T12:26:20.590Z,62.05
2016-02-15T12:27:20.593Z,61.96
2016-02-15T12:28:20.626Z,61.86
2016-02-15T12:29:20.629Z,62.34
2016-02-15T12:30:20.648Z,62.81
2016-02-15T12:31:20.665Z,62.81
2016-02-15T12:32:20.684Z,62.81
2016-02-15T12:33:20.718Z,62.62
2016-02-15T12:34:20.720Z,61.67
2016-02-15T12:35:20.755Z,61.77
2016-02-15T12:36:20.758Z,61.86
2016-02-15T12:37:20.776Z,61.67
2016-02-15T12:38:20.794Z,61.67
2016-02-15T12:39:20.812Z,61
2016-02-15T12:40:20.831Z,60.63
2016-02-15T12:41:20.864Z,60.44
2016-02-15T12:42:20.868Z,60.53
2016-02-15T12:43:20.886Z,60.44
2016-02-15T12:44:20.920Z,60.24
2016-02-15T12:45:20.922Z,60.82
2016-02-15T12:46:20.956Z,60.44
2016-02-15T12:47:20.958Z,60.53
2016-02-15T12:48:20.993Z,60.91
2016-02-15T12:49:20.996Z,60.53
2016-02-15T12:50:21.030Z,60.44
2016-02-15T12:51:21.032Z,60.15
2016-02-15T12:52:21.066Z,60.24
2016-02-15T12:53:21.069Z,60.15
2016-02-15T12:54:21.102Z,59.67
2016-02-15T12:55:21.121Z,60.15